createdAt,value
2022-11-17T00:01:56.097Z,87.55
2022-11-17T00:06:57.340Z,87.58
2022-11-17T00:12:22.074Z,87.58
2022-11-17T00:17:23.384Z,87.38
2022-11-17T00:22:24.511Z,88.21
2022-11-17T00:27:26.645Z,88.31
2022-11-17T00:32:44.763Z,88.49
2022-11-17T00:37:59.455Z,87.70
2022-11-17T00:43:01.561Z,87.29
2022-11-17T00:48:02.338Z,87.48
2022-11-17T00:53:03.112Z,87.93
2022-11-17T00:58:05.465Z,88.12
2022-11-17T01:03:06.239Z,88.34
2022-11-17T01:08:07.047Z,88.30
2022-11-17T01:13:09.257Z,88.22
2022-11-17T01:18:11.029Z,88.11
2022-11-17T01:23:11.790Z,88.05
2022-11-17T01:28:13.932Z,88.22
2022-11-17T01:33:14.905Z,88.16
2022-11-17T01:38:15.680Z,87.87
2022-11-17T01:43:17.919Z,88.85
2022-11-17T01:48:18.786Z,88.73
2022-11-17T01:53:22.263Z,88.26
2022-11-17T01:58:29.277Z,88.20
2022-11-17T02:03:34.711Z,87.86
2022-11-17T02:08:39.489Z,88.71
2022-11-17T02:13:42.390Z,88.48
2022-11-17T02:18:45.217Z,88.45
2022-11-17T02:24:21.984Z,87.95
2022-11-17T02:29:31.369Z,87.31
2022-11-17T02:34:39.279Z,87.31
2022-11-17T02:39:44.857Z,88.00
2022-11-17T02:44:56.652Z,87.48
2022-11-17T02:50:01.844Z,87.87
2022-11-17T02:55:03.824Z,87.14
2022-11-17T03:00:12.018Z,87.73
2022-11-17T03:05:18.073Z,87.52
2022-11-17T03:10:22.234Z,87.60
2022-11-17T03:15:33.900Z,87.31
2022-11-17T03:20:41.467Z,87.67
2022-11-17T03:25:46.142Z,87.15
2022-11-17T03:30:51.264Z,87.20
2022-11-17T03:35:55.901Z,87.50
2022-11-17T03:41:01.581Z,87.15
2022-11-17T03:46:07.419Z,87.47
2022-11-17T03:51:12.567Z,87.49
2022-11-17T03:56:26.303Z,88.22
2022-11-17T04:01:30.666Z,87.42
2022-11-17T04:06:31.520Z,87.78
2022-11-17T04:11:55.351Z,87.06
2022-11-17T04:16:57.487Z,87.00
2022-11-17T04:21:58.330Z,88.50
2022-11-17T04:27:16.772Z,88.36
2022-11-17T04:32:18.880Z,87.42
2022-11-17T04:37:19.638Z,87.76
2022-11-17T04:42:20.401Z,87.09
2022-11-17T04:47:22.508Z,86.80
2022-11-17T04:52:28.477Z,87.50
2022-11-17T04:57:30.610Z,87.32
2022-11-17T05:02:32.743Z,86.80
2022-11-17T05:07:33.600Z,87.08
2022-11-17T05:12:51.775Z,86.95
2022-11-17T05:17:53.908Z,86.22
2022-11-17T05:23:12.150Z,88.59
2022-11-17T05:28:13.006Z,86.30
2022-11-17T05:33:15.131Z,84.62
2022-11-17T05:38:15.890Z,85.78
2022-11-17T05:43:16.637Z,85.48
2022-11-17T05:48:18.824Z,85.43
2022-11-17T05:53:19.620Z,84.27
2022-11-17T05:58:23.745Z,84.29
2022-11-17T06:03:30.248Z,84.15
2022-11-17T06:08:31.754Z,84.09
2022-11-17T06:13:32.907Z,84.09
2022-11-17T06:18:39.027Z,85.01
2022-11-17T06:23:39.860Z,84.67
2022-11-17T06:28:44.343Z,84.02
2022-11-17T06:33:47.368Z,84.35
2022-11-17T06:38:48.200Z,83.36
2022-11-17T06:43:49.000Z,83.24
2022-11-17T06:48:51.119Z,83.70
2022-11-17T06:53:51.943Z,83.07
2022-11-17T06:58:52.736Z,83.03
2022-11-17T07:03:54.939Z,82.14
2022-11-17T07:08:58.659Z,82.19
2022-11-17T07:13:59.529Z,82.62
2022-11-17T07:19:03.846Z,81.84
2022-11-17T07:24:05.008Z,82.70
2022-11-17T07:29:05.854Z,82.34
2022-11-17T07:34:08.066Z,82.15
2022-11-17T07:39:08.863Z,81.47
2022-11-17T07:44:10.081Z,81.27
2022-11-17T07:49:12.452Z,81.04
2022-11-17T07:54:13.278Z,80.96
2022-11-17T07:59:18.490Z,80.31
2022-11-17T08:04:25.434Z,79.88
2022-11-17T08:09:26.377Z,80.72
2022-11-17T08:14:29.837Z,80.44
2022-11-17T08:19:32.212Z,79.93
2022-11-17T08:24:33.082Z,80.09
2022-11-17T08:29:33.875Z,79.66
2022-11-17T08:34:36.289Z,80.53
2022-11-17T08:39:37.404Z,79.39
2022-11-17T08:44:38.516Z,79.63
2022-11-17T08:49:40.937Z,79.85
2022-11-17T08:54:41.783Z,79.65
2022-11-17T08:59:42.749Z,79.40
2022-11-17T09:04:46.116Z,79.07
2022-11-17T09:09:48.559Z,79.01
2022-11-17T09:14:49.453Z,78.39
2022-11-17T09:19:51.886Z,78.17
2022-11-17T09:24:54.115Z,79.35
2022-11-17T09:29:54.978Z,79.75
2022-11-17T09:34:57.216Z,78.88
2022-11-17T09:39:58.467Z,79.27
2022-11-17T09:45:06.370Z,78.87
2022-11-17T09:50:20.141Z,78.16
2022-11-17T09:55:32.747Z,78.84
2022-11-17T10:00:37.665Z,79.08
2022-11-17T10:05:40.080Z,79.22
2022-11-17T10:10:46.941Z,78.72
2022-11-17T10:15:50.893Z,77.80
2022-11-17T10:20:53.179Z,78.02
2022-11-17T10:25:59.154Z,78.57
2022-11-17T10:31:01.574Z,78.33
2022-11-17T10:36:06.142Z,78.61
2022-11-17T10:41:06.980Z,77.98
2022-11-17T10:46:17.022Z,78.08
2022-11-17T11:54:04.900Z,81.27
2022-11-17T11:59:08.859Z,81.81
2022-11-17T12:04:21.016Z,79.65
2022-11-17T12:09:58.387Z,79.20
2022-11-17T12:15:31.962Z,78.93
2022-11-17T12:20:52.909Z,79.97
2022-11-17T12:25:57.079Z,81.25
2022-11-17T12:31:03.719Z,80.60
2022-11-17T12:36:30.863Z,81.11
2022-11-17T12:42:08.857Z,81.80
2022-11-17T12:47:15.152Z,82.39
2022-11-17T12:52:21.573Z,83.50
2022-11-17T12:57:28.046Z,85.16
2022-11-17T13:02:41.653Z,85.58
2022-11-17T13:07:42.400Z,86.81
2022-11-17T13:12:44.476Z,88.40
2022-11-17T13:17:45.535Z,88.38
2022-11-17T13:23:00.052Z,88.54
2022-11-17T13:28:05.115Z,87.96
2022-11-17T13:33:16.118Z,88.02
2022-11-17T13:38:20.178Z,88.44
2022-11-17T13:43:24.358Z,87.87
2022-11-17T13:48:33.172Z,88.21
2022-11-17T13:53:34.183Z,89.24
2022-11-17T13:58:40.926Z,88.55
2022-11-17T14:03:43.643Z,88.37
2022-11-17T14:09:02.269Z,88.32
2022-11-17T14:14:13.807Z,89.46
2022-11-17T14:19:33.967Z,88.76
2022-11-17T14:24:34.758Z,88.59
2022-11-17T14:29:36.808Z,88.58
2022-11-17T14:34:37.484Z,88.09
2022-11-17T14:39:38.219Z,88.80
2022-11-17T14:44:40.233Z,88.42
2022-11-17T14:49:40.970Z,88.44
2022-11-17T14:54:41.635Z,88.46
2022-11-17T14:59:43.771Z,87.70
2022-11-17T15:04:50.446Z,88.66
2022-11-17T15:09:52.282Z,88.88
2022-11-17T15:14:55.518Z,88.08
2022-11-17T15:19:56.304Z,88.15
2022-11-17T15:24:57.055Z,88.92
2022-11-17T15:29:59.193Z,88.79
2022-11-17T15:34:59.957Z,88.32
2022-11-17T15:40:00.777Z,88.93
2022-11-17T15:45:02.978Z,88.80
2022-11-17T15:50:03.816Z,88.63
2022-11-17T15:55:05.140Z,88.16
2022-11-17T16:00:09.083Z,87.43
2022-11-17T16:05:10.162Z,88.61
2022-11-17T16:10:12.214Z,88.53
2022-11-17T16:15:14.492Z,87.67
2022-11-17T16:20:15.888Z,88.10
2022-11-17T16:25:17.009Z,87.63
2022-11-17T16:30:19.591Z,88.32
2022-11-17T16:35:20.619Z,88.26
2022-11-17T16:40:22.779Z,87.75
2022-11-17T16:45:24.892Z,88.21
2022-11-17T16:50:25.858Z,87.56
2022-11-17T16:55:26.671Z,87.92
2022-11-17T17:00:29.034Z,88.52
2022-11-17T17:05:30.250Z,88.82
2022-11-17T17:10:31.257Z,88.58
2022-11-17T17:15:33.971Z,88.06
2022-11-17T17:20:34.787Z,89.00
2022-11-17T17:25:35.508Z,88.92
2022-11-17T17:30:37.659Z,88.89
2022-11-17T17:35:38.441Z,90.03
2022-11-17T17:40:39.193Z,89.42
2022-11-17T17:45:41.332Z,88.55
2022-11-17T17:50:42.085Z,88.34
2022-11-17T17:55:42.852Z,87.64
2022-11-17T18:00:47.295Z,87.78
2022-11-17T18:05:48.076Z,87.72
2022-11-17T18:10:48.843Z,87.72
2022-11-17T18:15:50.984Z,87.51
2022-11-17T18:20:59.579Z,87.68
2022-11-17T18:26:00.376Z,87.81
2022-11-17T18:31:04.314Z,88.17
2022-11-17T18:36:06.711Z,88.96
2022-11-17T18:41:10.219Z,88.77
2022-11-17T18:46:14.124Z,88.09
2022-11-17T18:51:19.982Z,87.72
2022-11-17T18:56:24.255Z,87.87
2022-11-17T19:01:28.849Z,88.95
2022-11-17T19:06:30.196Z,88.16
2022-11-17T19:11:33.170Z,88.42
2022-11-17T19:16:44.355Z,88.11
2022-11-17T19:21:45.495Z,89.02
2022-11-17T19:26:47.400Z,89.09
2022-11-17T19:31:51.159Z,88.83
2022-11-17T19:36:51.975Z,88.84
2022-11-17T19:41:53.359Z,88.27
2022-11-17T19:46:55.677Z,87.70
2022-11-17T19:51:56.442Z,87.95
2022-11-17T19:56:57.295Z,88.07
2022-11-17T20:01:59.438Z,88.18
2022-11-17T20:07:00.316Z,88.08
2022-11-17T20:12:01.105Z,88.02
2022-11-17T20:17:03.219Z,87.84
2022-11-17T20:22:04.012Z,88.59
2022-11-17T20:27:04.835Z,88.65
2022-11-17T20:32:07.107Z,88.50
2022-11-17T20:37:07.916Z,88.24
2022-11-17T20:42:08.700Z,88.23
2022-11-17T20:47:11.079Z,87.72
2022-11-17T20:52:13.457Z,87.08
2022-11-17T20:57:14.435Z,87.54
2022-11-17T21:02:16.645Z,87.40
2022-11-17T21:07:17.583Z,87.37
2022-11-17T21:12:18.620Z,87.67
2022-11-17T21:17:38.344Z,87.70
2022-11-17T21:22:39.157Z,87.72
2022-11-17T21:27:40.001Z,87.46
2022-11-17T21:32:42.091Z,87.61
2022-11-17T21:37:42.974Z,87.21
2022-11-17T21:42:44.189Z,86.24
2022-11-17T21:47:46.304Z,86.26
2022-11-17T21:52:47.089Z,87.53
2022-11-17T21:57:51.089Z,86.62
2022-11-17T22:02:53.273Z,85.75
2022-11-17T22:07:54.072Z,86.29
2022-11-17T22:12:54.901Z,86.23
2022-11-17T22:17:56.997Z,86.19
2022-11-17T22:22:58.075Z,85.50
2022-11-17T22:27:58.820Z,86.29
2022-11-17T22:33:00.936Z,85.91
2022-11-17T22:38:01.681Z,86.89
2022-11-17T22:43:04.576Z,86.95
2022-11-17T22:48:07.552Z,86.24
2022-11-17T22:53:08.367Z,86.00
2022-11-17T22:58:09.299Z,86.71
2022-11-17T23:03:12.445Z,87.17
2022-11-17T23:08:13.263Z,86.24
2022-11-17T23:13:14.023Z,86.59
2022-11-17T23:18:16.171Z,85.97
2022-11-17T23:23:17.321Z,86.19
2022-11-17T23:28:18.090Z,86.15
2022-11-17T23:33:20.184Z,86.15
2022-11-17T23:38:20.961Z,86.09
2022-11-17T23:43:21.851Z,86.00
2022-11-17T23:48:24.550Z,85.00
2022-11-17T23:53:25.303Z,84.83
2022-11-17T23:58:26.110Z,84.79
